sensor_id;sensor_type;location;lat;lon;timestamp;temperature;humidity
81366;DHT22;70822;51.990;22.766;2023-07-31T00:04:32;19.10;66.90
81366;DHT22;70822;51.990;22.766;2023-07-31T00:19:37;18.90;67.00
81366;DHT22;70822;51.990;22.766;2023-07-31T00:34:42;18.90;69.40
81366;DHT22;70822;51.990;22.766;2023-07-31T00:49:47;18.70;69.90
81366;DHT22;70822;51.990;22.766;2023-07-31T01:04:53;18.80;69.30
81366;DHT22;70822;51.990;22.766;2023-07-31T01:20:01;18.70;69.90
81366;DHT22;70822;51.990;22.766;2023-07-31T01:35:07;18.70;69.80
81366;DHT22;70822;51.990;22.766;2023-07-31T01:50:12;18.70;69.60
81366;DHT22;70822;51.990;22.766;2023-07-31T02:05:17;18.70;69.60
81366;DHT22;70822;51.990;22.766;2023-07-31T02:20:22;18.60;69.90
81366;DHT22;70822;51.990;22.766;2023-07-31T02:35:26;18.60;70.10
81366;DHT22;70822;51.990;22.766;2023-07-31T02:50:31;18.60;70.20
81366;DHT22;70822;51.990;22.766;2023-07-31T03:05:36;18.50;71.00
81366;DHT22;70822;51.990;22.766;2023-07-31T03:20:44;18.40;70.80
81366;DHT22;70822;51.990;22.766;2023-07-31T03:35:48;18.40;71.00
81366;DHT22;70822;51.990;22.766;2023-07-31T03:50:53;18.50;70.70
81366;DHT22;70822;51.990;22.766;2023-07-31T04:05:58;19.90;69.40
81366;DHT22;70822;51.990;22.766;2023-07-31T04:21:03;21.10;68.20
81366;DHT22;70822;51.990;22.766;2023-07-31T04:36:07;28.30;58.60
81366;DHT22;70822;51.990;22.766;2023-07-31T04:51:12;36.10;46.30
81366;DHT22;70822;51.990;22.766;2023-07-31T05:06:17;38.00;40.60
81366;DHT22;70822;51.990;22.766;2023-07-31T05:21:22;37.30;39.00
81366;DHT22;70822;51.990;22.766;2023-07-31T05:36:27;43.30;32.00
81366;DHT22;70822;51.990;22.766;2023-07-31T05:51:31;44.20;26.20
81366;DHT22;70822;51.990;22.766;2023-07-31T06:06:36;40.80;28.90
81366;DHT22;70822;51.990;22.766;2023-07-31T06:21:41;38.50;30.20
81366;DHT22;70822;51.990;22.766;2023-07-31T06:36:47;38.80;30.00
81366;DHT22;70822;51.990;22.766;2023-07-31T06:51:52;37.80;30.90
81366;DHT22;70822;51.990;22.766;2023-07-31T07:06:56;33.40;36.90
81366;DHT22;70822;51.990;22.766;2023-07-31T07:22:01;29.50;42.00
81366;DHT22;70822;51.990;22.766;2023-07-31T07:37:07;28.00;47.10
81366;DHT22;70822;51.990;22.766;2023-07-31T07:52:11;28.00;47.70
81366;DHT22;70822;51.990;22.766;2023-07-31T08:07:16;27.80;48.90
81366;DHT22;70822;51.990;22.766;2023-07-31T08:22:22;27.70;49.10
81366;DHT22;70822;51.990;22.766;2023-07-31T08:37:26;27.40;49.70
81366;DHT22;70822;51.990;22.766;2023-07-31T08:52:31;27.30;50.70
81366;DHT22;70822;51.990;22.766;2023-07-31T09:07:40;27.60;49.10
81366;DHT22;70822;51.990;22.766;2023-07-31T09:22:48;27.80;49.00
81366;DHT22;70822;51.990;22.766;2023-07-31T09:37:55;28.30;48.40
81366;DHT22;70822;51.990;22.766;2023-07-31T09:53:01;28.70;46.10
81366;DHT22;70822;51.990;22.766;2023-07-31T10:08:07;28.50;46.60
81366;DHT22;70822;51.990;22.766;2023-07-31T10:23:13;28.70;44.70
81366;DHT22;70822;51.990;22.766;2023-07-31T10:38:19;28.80;43.60
81366;DHT22;70822;51.990;22.766;2023-07-31T10:53:24;28.70;43.80
81366;DHT22;70822;51.990;22.766;2023-07-31T11:08:31;28.40;43.80
81366;DHT22;70822;51.990;22.766;2023-07-31T11:23:37;28.20;44.50
81366;DHT22;70822;51.990;22.766;2023-07-31T11:38:42;28.10;42.20
81366;DHT22;70822;51.990;22.766;2023-07-31T11:53:49;28.00;42.70
81366;DHT22;70822;51.990;22.766;2023-07-31T12:09:01;27.90;43.50
81366;DHT22;70822;51.990;22.766;2023-07-31T12:24:06;27.60;43.80
81366;DHT22;70822;51.990;22.766;2023-07-31T12:39:11;27.70;45.00
81366;DHT22;70822;51.990;22.766;2023-07-31T12:54:16;27.70;45.00
81366;DHT22;70822;51.990;22.766;2023-07-31T13:09:21;27.80;44.20
81366;DHT22;70822;51.990;22.766;2023-07-31T13:24:26;27.60;42.20
81366;DHT22;70822;51.990;22.766;2023-07-31T13:39:30;27.30;43.20
81366;DHT22;70822;51.990;22.766;2023-07-31T13:54:35;27.10;42.50
81366;DHT22;70822;51.990;22.766;2023-07-31T14:09:40;27.00;41.80
81366;DHT22;70822;51.990;22.766;2023-07-31T14:24:44;26.70;42.50
81366;DHT22;70822;51.990;22.766;2023-07-31T14:39:50;26.50;41.50
81366;DHT22;70822;51.990;22.766;2023-07-31T14:54:55;26.30;41.70
81366;DHT22;70822;51.990;22.766;2023-07-31T15:10:00;26.10;41.60
81366;DHT22;70822;51.990;22.766;2023-07-31T15:25:06;25.80;42.80
81366;DHT22;70822;51.990;22.766;2023-07-31T15:40:12;25.80;43.30
81366;DHT22;70822;51.990;22.766;2023-07-31T15:55:17;25.80;42.20
81366;DHT22;70822;51.990;22.766;2023-07-31T16:10:22;25.70;42.20
81366;DHT22;70822;51.990;22.766;2023-07-31T16:25:28;25.20;42.40
81366;DHT22;70822;51.990;22.766;2023-07-31T16:40:32;25.00;43.50
81366;DHT22;70822;51.990;22.766;2023-07-31T16:55:37;25.00;44.40
81366;DHT22;70822;51.990;22.766;2023-07-31T17:10:42;24.90;44.70
81366;DHT22;70822;51.990;22.766;2023-07-31T17:25:47;24.50;45.50
81366;DHT22;70822;51.990;22.766;2023-07-31T17:40:52;24.20;46.20
81366;DHT22;70822;51.990;22.766;2023-07-31T17:55:58;23.90;47.10
81366;DHT22;70822;51.990;22.766;2023-07-31T18:11:04;23.70;47.70
81366;DHT22;70822;51.990;22.766;2023-07-31T18:26:10;23.40;48.90
81366;DHT22;70822;51.990;22.766;2023-07-31T18:41:15;23.40;50.10
81366;DHT22;70822;51.990;22.766;2023-07-31T18:56:19;23.20;50.80
81366;DHT22;70822;51.990;22.766;2023-07-31T19:11:24;22.40;52.20
81366;DHT22;70822;51.990;22.766;2023-07-31T19:26:34;21.60;53.30
81366;DHT22;70822;51.990;22.766;2023-07-31T19:41:39;21.00;54.00
81366;DHT22;70822;51.990;22.766;2023-07-31T19:56:47;20.50;54.80
81366;DHT22;70822;51.990;22.766;2023-07-31T20:11:53;20.20;55.50
81366;DHT22;70822;51.990;22.766;2023-07-31T20:27:00;19.80;56.10
81366;DHT22;70822;51.990;22.766;2023-07-31T20:42:06;19.60;56.50
81366;DHT22;70822;51.990;22.766;2023-07-31T20:57:11;19.40;57.40
81366;DHT22;70822;51.990;22.766;2023-07-31T21:12:16;19.40;57.50
81366;DHT22;70822;51.990;22.766;2023-07-31T21:27:20;19.30;57.70
81366;DHT22;70822;51.990;22.766;2023-07-31T21:42:28;19.10;57.90
81366;DHT22;70822;51.990;22.766;2023-07-31T21:57:32;18.80;59.00
81366;DHT22;70822;51.990;22.766;2023-07-31T22:12:37;18.50;60.40
81366;DHT22;70822;51.990;22.766;2023-07-31T22:27:42;18.40;60.90
81366;DHT22;70822;51.990;22.766;2023-07-31T22:42:47;18.20;61.00
81366;DHT22;70822;51.990;22.766;2023-07-31T22:57:53;17.90;61.40
81366;DHT22;70822;51.990;22.766;2023-07-31T23:12:58;17.80;63.40
81366;DHT22;70822;51.990;22.766;2023-07-31T23:28:05;17.60;63.50
81366;DHT22;70822;51.990;22.766;2023-07-31T23:43:10;17.40;64.00
81366;DHT22;70822;51.990;22.766;2023-07-31T23:58:16;17.30;64.30
